• Join FlightAware (Why Join?)
  • Login
  • US Flag 
08:52PM EST


 

Airport Tracker/Info


-or-


 

Live Flight TrackerFlight Track Log ✈ FIN666 ✈ 16-Dec-2013 ✈ EKCH / CPH - EFHK / HEL

Flight Track Log - Related Links

Times and Time Zones

All times are in EST time to prevent confusion due to time zone crossing. See the FIN666 flight status page for this flight to view local times or setup timezone preferences in your user account.

Time Position Orientation Groundspeed Altitude Reporting Facility
EST Latitude Longitude Course Direction KTS MPH feet Rate Location/Type
07:34AM 55.9251 13.2931 49° Northeast  Level Estimated
07:35AM 56.0014 13.4539 50° Northeast  Level Estimated
07:36AM 56.0774 13.6154 50° Northeast  Level Estimated
07:37AM 56.1533 13.7776 50° Northeast  Level Estimated
07:38AM 56.2301 13.9428 50° Northeast  Level Estimated
07:39AM 56.3033 14.1015 50° Northeast  Level Estimated
07:40AM 56.3764 14.2608 50° Northeast  Level Estimated
07:41AM 56.4493 14.4208 50° Northeast  Level Estimated
07:42AM 56.5219 14.5814 51° Northeast  Level Estimated
07:43AM 56.5944 14.7426 51° Northeast  Level Estimated
07:44AM 56.6666 14.9044 51° Northeast  Level Estimated
07:45AM 56.7386 15.0668 51° Northeast  Level Estimated
07:46AM 56.8105 15.2299 51° Northeast  Level Estimated
07:47AM 56.8821 15.3936 51° Northeast  Level Estimated
07:48AM 56.9534 15.5579 51° Northeast  Level Estimated
07:49AM 57.0246 15.7228 52° Northeast  Level Estimated
07:50AM 57.0956 15.8884 52° Northeast  Level Estimated
07:51AM 57.1663 16.0546 52° Northeast  Level Estimated
07:52AM 57.2368 16.2214 52° Northeast  Level Estimated
07:53AM 57.3071 16.3889 52° Northeast  Level Estimated
07:54AM 57.3772 16.5570 52° Northeast  Level Estimated
07:55AM 57.4470 16.7258 52° Northeast  Level Estimated
07:56AM 57.5166 16.8952 53° Northeast  Level Estimated
07:57AM 57.5860 17.0652 53° Northeast  Level Estimated
07:58AM 57.6552 17.2359 53° Northeast  Level Estimated
07:59AM 57.7241 17.4073 53° Northeast  Level Estimated
08:00AM 57.7928 17.5793 53° Northeast  Level Estimated
08:01AM 57.8613 17.7519 53° Northeast  Level Estimated
08:02AM 57.9295 17.9253 53° Northeast  Level Estimated
08:03AM 57.9975 18.0992 54° Northeast  Level Estimated
08:04AM 58.0652 18.2739 54° Northeast  Level Estimated
08:05AM 58.1328 18.4492 54° Northeast  Level Estimated
08:06AM 58.2000 18.6251 54° Northeast  Level Estimated
08:07AM 58.2671 18.8018 54° Northeast  Level Estimated
08:08AM 58.3338 18.9791 54° Northeast  Level Estimated
08:09AM 58.4004 19.1570 54° Northeast  Level Estimated
08:10AM 58.4667 19.3357 55° Northeast  Level Estimated
08:11AM 58.5327 19.5150 55° Northeast  Level Estimated
08:12AM 58.5985 19.6950 55° Northeast  Level Estimated
08:13AM 58.6640 19.8757 55° Northeast  Level Estimated
08:14AM 58.7293 20.0570 55° Northeast  Level Estimated
08:15AM 58.7944 20.2390 55° Northeast  Level Estimated
08:16AM 58.8591 20.4217 56° Northeast  Level Estimated
08:17AM 58.9236 20.6051 56° Northeast  Level Estimated
08:18AM 58.9879 20.7892 56° Northeast  Level Estimated
08:19AM 59.0519 20.9740 56° Northeast  Level Estimated
08:20AM 59.1156 21.1594 56° Northeast  Level Estimated
08:21AM 59.1791 21.3456 56° Northeast  Level Estimated
08:22AM 59.2423 21.5324 56° Northeast  Level Estimated
08:23AM 59.3052 21.7199 57° Northeast  Level Estimated
08:24AM 59.3679 21.9081 57° Northeast  Level Estimated
08:25AM 59.4302 22.0970 57° Northeast  Level Estimated
08:26AM 59.4923 22.2866 57° Northeast  Level Estimated
08:27AM 59.5542 22.4769 57° Northeast  Level Estimated
08:28AM 59.6157 22.6679 57° Northeast  Level Estimated
08:29AM 59.6770 22.8596 58° Northeast  Level Estimated
08:30AM 59.7380 23.0520 58° Northeast  Level Estimated
08:31AM 59.7987 23.2452 58° Northeast  Level Estimated
08:32AM 59.8592 23.4390 58° Northeast  Level Estimated
08:33AM 59.9193 23.6335 58° Northeast  Level Estimated
08:34AM 59.9792 23.8287 58° Northeast  Level Estimated
08:35AM 60.0387 24.0246 59° Northeast  Level Estimated
08:36AM 60.0980 24.2213 59° Northeast  Level Estimated
08:37AM 60.1570 24.4186 59° Northeast  Level Estimated
08:38AM 60.2157 24.6166 59° Northeast  Level Estimated
08:39AM 60.2741 24.8154 59° Northeast  Level Estimated
08:40AM 60.3172 24.9633 59° Northeast  Level Estimated
08:41AM 60.3172 24.9633 37° Northeast  Level Estimated
08:42AM 60.3172 24.9633 37° Northeast  Level Estimated
08:43AM 60.3172 24.9633 37° Northeast  Level Estimated
08:44AM 60.3172 24.9633 37° Northeast  Level Estimated
08:45AM 60.3172 24.9633 37° Northeast  Level Estimated
08:46AM 60.3172 24.9633 37° Northeast  Level Estimated
08:47AM 60.3172 24.9633 37° Northeast  Level Estimated
08:48AM 60.3172 24.9633 37° Northeast  Level Estimated
08:49AM 60.3172 24.9633 37° Northeast  Level Estimated
08:50AM 60.3172 24.9633 37° Northeast  Level Estimated
08:51AM 60.3172 24.9633 37° Northeast  Level Estimated